Thomas G. Thompson — KTDQ — position and weather

sailwx.info

Track history (hours):
 
Tides and Currents Weather Stations Pressure Air Temp Water Temp Dewpoint Dewpoint Depression Visibility Wind Speed Wind Dir Waves Ship Positions

Oceanographic research ship Thomas G. Thompson (USA)

Ship's website: http://www.ocean.washington.edu/vessels/TGT/tgt.html

Detailed information on ship capabilities available from University of Delaware's Ocean Information Center.

Owner: UNIVERSITY OF WASHINGTON, SEATTLE, WA. More information available from US FCC via Universal Licensing System and Coast Guard Vessel Documentation Center.

Last reported at 2016-May-24 21:11 UTC. Time now 2016-May-29 23:08 UTC.
Position N 47°39' W 122°19'.

Type: Other ship. MMSI: 366345000.

Date/timePositionNaut miles runAvg speedWind from/ knotsBaromVisibWave heightAir tempDewpointWater temp
2016-May-24 21:11N 47°39' W 122°19'1 2.0
2016-May-24 20:33N 47°39' W 122°21'3 2.5
2016-May-24 19:33N 47°40' W 122°24'2 1.7
2016-May-24 18:33N 47°41' W 122°26'3 3.1
2016-May-24 17:33N 47°44' W 122°27'1111.2
2016-May-24 16:33N 47°55' W 122°31'1410.1
2016-May-24 15:12N 48°07' W 122°41'1810.6
2016-May-24 13:30N 48°12' W 123°07'1312.4
2016-May-24 12:29N 48°13' W 123°26'1212.1
2016-May-24 11:30N 48°13' W 123°44'78 2.7
2016-May-23 06:31N 47°04' W 124°34'1010.1
2016-May-23 05:33N 46°54' W 124°35'1010.0
2016-May-23 04:33N 46°44' W 124°33'1212.2
2016-May-23 03:33N 46°32' W 124°31'1212.0
2016-May-23 02:33N 46°20' W 124°29'9 9.3
2016-May-23 01:33N 46°11' W 124°28'1211.9
2016-May-23 00:33N 45°59' W 124°26'1211.6
2016-May-22 23:33N 45°48' W 124°24'8 8.0
2016-May-22 22:33N 45°40' W 124°23'1212.1
2016-May-22 21:33N 45°28' W 124°21'1311.8
2016-May-22 20:26N 45°15' W 124°18'  
2016-May-18 19:23N 44°36' W 124°07'3 1.8
2016-May-18 17:31N 44°39' W 124°06'0 0.0
2016-May-18 16:33N 44°39' W 124°06'0 0.0
2016-May-18 15:32N 44°39' W 124°06'0 0.0
2016-May-18 14:33N 44°39' W 124°06'0 0.0
2016-May-18 13:33N 44°40' W 124°06'0 0.0
2016-May-18 12:30N 44°39' W 124°06'0 0.0
2016-May-18 11:28N 44°39' W 124°06'0 0.0
2016-May-18 10:34N 44°39' W 124°06'0 0.0
2016-May-18 09:33N 44°39' W 124°06'0 0.0
2016-May-18 08:25N 44°39' W 124°06'3 0.2
2016-May-17 13:29N 44°36' W 124°07'0 0.1
2016-May-17 07:32N 44°37' W 124°08'0 0.0
2016-May-17 06:33N 44°37' W 124°08'0 0.0
2016-May-17 05:29N 44°37' W 124°08'0 0.0
2016-May-17 04:23N 44°37' W 124°08'2 0.5
2016-May-17 01:31N 44°37' W 124°10'6 1.5
2016-May-16 21:26N 44°38' W 124°18'5 5.3
2016-May-16 20:33N 44°39' W 124°12'32 2.4
2016-May-16 07:11N 44°24' W 124°51'48 1.5
2016-May-14 22:34N 45°06' W 124°18'1212.3
2016-May-14 21:33N 45°18' W 124°23'  
Track history (hours):
 
Tides and Currents Weather Stations Pressure Air Temp Water Temp Dewpoint Dewpoint Depression Visibility Wind Speed Wind Dir Waves Ship Positions

Oceanographic research ship Thomas G. Thompson (USA)

Ship's website: http://www.ocean.washington.edu/vessels/TGT/tgt.html

Detailed information on ship capabilities available from University of Delaware's Ocean Information Center.

Owner: UNIVERSITY OF WASHINGTON, SEATTLE, WA. More information available from US FCC via Universal Licensing System and Coast Guard Vessel Documentation Center.

Last reported at 2016-May-24 21:11 UTC. Time now 2016-May-29 23:08 UTC.
Position N 47°39' W 122°19'.

Type: Other ship. MMSI: 366345000.

Date/timePositionNaut miles runAvg speedWind from/ knotsBaromVisibWave heightAir tempDewpointWater temp
2016-May-24 21:11N 47°39' W 122°19'1 2.0
2016-May-24 20:33N 47°39' W 122°21'3 2.5
2016-May-24 19:33N 47°40' W 122°24'2 1.7
2016-May-24 18:33N 47°41' W 122°26'3 3.1
2016-May-24 17:33N 47°44' W 122°27'1111.2
2016-May-24 16:33N 47°55' W 122°31'1410.1
2016-May-24 15:12N 48°07' W 122°41'1810.6
2016-May-24 13:30N 48°12' W 123°07'1312.4
2016-May-24 12:29N 48°13' W 123°26'1212.1
2016-May-24 11:30N 48°13' W 123°44'78 2.7
2016-May-23 06:31N 47°04' W 124°34'1010.1
2016-May-23 05:33N 46°54' W 124°35'1010.0
2016-May-23 04:33N 46°44' W 124°33'1212.2
2016-May-23 03:33N 46°32' W 124°31'1212.0
2016-May-23 02:33N 46°20' W 124°29'9 9.3
2016-May-23 01:33N 46°11' W 124°28'1211.9
2016-May-23 00:33N 45°59' W 124°26'1211.6
2016-May-22 23:33N 45°48' W 124°24'8 8.0
2016-May-22 22:33N 45°40' W 124°23'1212.1
2016-May-22 21:33N 45°28' W 124°21'1311.8
2016-May-22 20:26N 45°15' W 124°18'  
2016-May-18 19:23N 44°36' W 124°07'3 1.8
2016-May-18 17:31N 44°39' W 124°06'0 0.0
2016-May-18 16:33N 44°39' W 124°06'0 0.0
2016-May-18 15:32N 44°39' W 124°06'0 0.0
2016-May-18 14:33N 44°39' W 124°06'0 0.0
2016-May-18 13:33N 44°40' W 124°06'0 0.0
2016-May-18 12:30N 44°39' W 124°06'0 0.0
2016-May-18 11:28N 44°39' W 124°06'0 0.0
2016-May-18 10:34N 44°39' W 124°06'0 0.0
2016-May-18 09:33N 44°39' W 124°06'0 0.0
2016-May-18 08:25N 44°39' W 124°06'3 0.2
2016-May-17 13:29N 44°36' W 124°07'0 0.1
2016-May-17 07:32N 44°37' W 124°08'0 0.0
2016-May-17 06:33N 44°37' W 124°08'0 0.0
2016-May-17 05:29N 44°37' W 124°08'0 0.0
2016-May-17 04:23N 44°37' W 124°08'2 0.5
2016-May-17 01:31N 44°37' W 124°10'6 1.5
2016-May-16 21:26N 44°38' W 124°18'5 5.3
2016-May-16 20:33N 44°39' W 124°12'32 2.4
2016-May-16 07:11N 44°24' W 124°51'48 1.5
2016-May-14 22:34N 45°06' W 124°18'1212.3
2016-May-14 21:33N 45°18' W 124°23'  

Dump ship's entire track history